sensor_id;sensor_type;location;lat;lon;timestamp;temperature;humidity
1391;DHT22;690;51.454;7.194;2023-03-12T00:01:14;5.20;99.90
1391;DHT22;690;51.454;7.194;2023-03-12T00:03:41;5.10;99.90
1391;DHT22;690;51.454;7.194;2023-03-12T00:06:09;5.10;99.90
1391;DHT22;690;51.454;7.194;2023-03-12T00:08:35;5.10;99.90
1391;DHT22;690;51.454;7.194;2023-03-12T00:11:06;5.10;99.90
1391;DHT22;690;51.454;7.194;2023-03-12T00:13:32;5.00;99.90
1391;DHT22;690;51.454;7.194;2023-03-12T00:16:05;5.10;99.90
1391;DHT22;690;51.454;7.194;2023-03-12T00:18:32;5.10;99.90
1391;DHT22;690;51.454;7.194;2023-03-12T00:20:59;5.00;99.90
1391;DHT22;690;51.454;7.194;2023-03-12T00:23:26;5.00;99.90
1391;DHT22;690;51.454;7.194;2023-03-12T00:25:53;5.00;99.90
1391;DHT22;690;51.454;7.194;2023-03-12T00:28:20;5.00;99.90
1391;DHT22;690;51.454;7.194;2023-03-12T00:30:46;5.00;99.90
1391;DHT22;690;51.454;7.194;2023-03-12T00:33:15;5.00;99.90
1391;DHT22;690;51.454;7.194;2023-03-12T00:35:41;5.00;99.90
1391;DHT22;690;51.454;7.194;2023-03-12T00:38:08;5.00;99.90
1391;DHT22;690;51.454;7.194;2023-03-12T00:40:35;5.00;99.90
1391;DHT22;690;51.454;7.194;2023-03-12T00:43:03;5.00;99.90
1391;DHT22;690;51.454;7.194;2023-03-12T00:45:30;5.00;99.90
1391;DHT22;690;51.454;7.194;2023-03-12T00:47:57;5.00;99.90
1391;DHT22;690;51.454;7.194;2023-03-12T00:50:25;5.00;99.90
1391;DHT22;690;51.454;7.194;2023-03-12T00:52:52;5.00;99.90
1391;DHT22;690;51.454;7.194;2023-03-12T00:55:19;5.00;99.90
1391;DHT22;690;51.454;7.194;2023-03-12T00:57:46;5.00;99.90
1391;DHT22;690;51.454;7.194;2023-03-12T01:00:14;5.00;99.90
1391;DHT22;690;51.454;7.194;2023-03-12T01:02:41;5.00;99.90
1391;DHT22;690;51.454;7.194;2023-03-12T01:05:11;5.00;99.90
1391;DHT22;690;51.454;7.194;2023-03-12T01:07:42;5.00;99.90
1391;DHT22;690;51.454;7.194;2023-03-12T01:10:12;5.00;99.90
1391;DHT22;690;51.454;7.194;2023-03-12T01:12:39;5.00;99.90
1391;DHT22;690;51.454;7.194;2023-03-12T01:15:07;5.00;99.90
1391;DHT22;690;51.454;7.194;2023-03-12T01:17:34;5.00;99.90
1391;DHT22;690;51.454;7.194;2023-03-12T01:20:01;5.00;99.90
1391;DHT22;690;51.454;7.194;2023-03-12T01:22:28;5.00;99.90
1391;DHT22;690;51.454;7.194;2023-03-12T01:24:56;5.00;99.90
1391;DHT22;690;51.454;7.194;2023-03-12T01:27:23;5.00;99.90
1391;DHT22;690;51.454;7.194;2023-03-12T01:29:50;5.00;99.90
1391;DHT22;690;51.454;7.194;2023-03-12T01:32:17;5.00;99.90
1391;DHT22;690;51.454;7.194;2023-03-12T01:34:44;5.10;99.90
1391;DHT22;690;51.454;7.194;2023-03-12T01:37:11;5.10;99.90
1391;DHT22;690;51.454;7.194;2023-03-12T01:39:37;5.10;99.90
1391;DHT22;690;51.454;7.194;2023-03-12T01:42:06;5.10;99.90
1391;DHT22;690;51.454;7.194;2023-03-12T01:44:49;5.10;99.90
1391;DHT22;690;51.454;7.194;2023-03-12T01:47:15;5.10;99.90
1391;DHT22;690;51.454;7.194;2023-03-12T01:49:42;5.20;99.90
1391;DHT22;690;51.454;7.194;2023-03-12T01:52:13;5.20;99.90
1391;DHT22;690;51.454;7.194;2023-03-12T01:54:43;5.20;99.90
1391;DHT22;690;51.454;7.194;2023-03-12T01:57:14;5.20;99.90
1391;DHT22;690;51.454;7.194;2023-03-12T01:59:45;5.20;99.90
1391;DHT22;690;51.454;7.194;2023-03-12T02:02:13;5.20;99.90
1391;DHT22;690;51.454;7.194;2023-03-12T02:04:42;5.30;99.90
1391;DHT22;690;51.454;7.194;2023-03-12T02:07:12;5.30;99.90
1391;DHT22;690;51.454;7.194;2023-03-12T02:09:41;5.30;99.90
1391;DHT22;690;51.454;7.194;2023-03-12T02:12:08;5.30;99.90
1391;DHT22;690;51.454;7.194;2023-03-12T02:14:37;5.30;99.90
1391;DHT22;690;51.454;7.194;2023-03-12T02:17:05;5.30;99.90
1391;DHT22;690;51.454;7.194;2023-03-12T02:19:40;5.30;99.90
1391;DHT22;690;51.454;7.194;2023-03-12T02:22:09;5.30;99.90
1391;DHT22;690;51.454;7.194;2023-03-12T02:24:40;5.40;99.90
1391;DHT22;690;51.454;7.194;2023-03-12T02:27:11;5.40;99.90
1391;DHT22;690;51.454;7.194;2023-03-12T02:29:39;5.40;99.90
1391;DHT22;690;51.454;7.194;2023-03-12T02:32:08;5.40;99.90
1391;DHT22;690;51.454;7.194;2023-03-12T02:34:40;5.40;99.90
1391;DHT22;690;51.454;7.194;2023-03-12T02:37:07;5.40;99.90
1391;DHT22;690;51.454;7.194;2023-03-12T02:39:35;5.40;99.90
1391;DHT22;690;51.454;7.194;2023-03-12T02:42:03;5.40;99.90
1391;DHT22;690;51.454;7.194;2023-03-12T02:44:32;5.40;99.90
1391;DHT22;690;51.454;7.194;2023-03-12T02:47:01;5.40;99.90
1391;DHT22;690;51.454;7.194;2023-03-12T02:49:30;5.40;99.90
1391;DHT22;690;51.454;7.194;2023-03-12T02:51:58;5.40;99.90
1391;DHT22;690;51.454;7.194;2023-03-12T02:54:25;5.40;99.90
1391;DHT22;690;51.454;7.194;2023-03-12T02:56:52;5.50;99.90
1391;DHT22;690;51.454;7.194;2023-03-12T02:59:19;5.50;99.90
1391;DHT22;690;51.454;7.194;2023-03-12T03:01:51;5.50;99.90
1391;DHT22;690;51.454;7.194;2023-03-12T03:04:19;5.50;99.90
1391;DHT22;690;51.454;7.194;2023-03-12T03:06:46;5.50;99.90
1391;DHT22;690;51.454;7.194;2023-03-12T03:09:13;5.50;99.90
1391;DHT22;690;51.454;7.194;2023-03-12T03:11:40;5.50;99.90
1391;DHT22;690;51.454;7.194;2023-03-12T03:14:07;5.50;99.90
1391;DHT22;690;51.454;7.194;2023-03-12T03:16:36;5.50;99.90
1391;DHT22;690;51.454;7.194;2023-03-12T03:19:06;5.50;99.90
1391;DHT22;690;51.454;7.194;2023-03-12T03:21:34;5.40;99.90
1391;DHT22;690;51.454;7.194;2023-03-12T03:24:03;5.40;99.90
1391;DHT22;690;51.454;7.194;2023-03-12T03:26:30;5.40;99.90
1391;DHT22;690;51.454;7.194;2023-03-12T03:28:57;5.40;99.90
1391;DHT22;690;51.454;7.194;2023-03-12T03:31:24;5.30;99.90
1391;DHT22;690;51.454;7.194;2023-03-12T03:33:51;5.40;99.90
1391;DHT22;690;51.454;7.194;2023-03-12T03:36:19;5.40;99.90
1391;DHT22;690;51.454;7.194;2023-03-12T03:38:48;5.40;99.90
1391;DHT22;690;51.454;7.194;2023-03-12T03:41:15;5.40;99.90
1391;DHT22;690;51.454;7.194;2023-03-12T03:43:43;5.30;99.90
1391;DHT22;690;51.454;7.194;2023-03-12T03:46:11;5.30;99.90
1391;DHT22;690;51.454;7.194;2023-03-12T03:48:39;5.30;99.90
1391;DHT22;690;51.454;7.194;2023-03-12T03:51:08;5.30;99.90
1391;DHT22;690;51.454;7.194;2023-03-12T03:53:37;5.30;99.90
1391;DHT22;690;51.454;7.194;2023-03-12T03:56:05;5.30;99.90
1391;DHT22;690;51.454;7.194;2023-03-12T03:58:32;5.40;99.90
1391;DHT22;690;51.454;7.194;2023-03-12T04:00:59;5.40;99.90
1391;DHT22;690;51.454;7.194;2023-03-12T04:03:26;5.40;99.90
1391;DHT22;690;51.454;7.194;2023-03-12T04:05:54;5.40;99.90
1391;DHT22;690;51.454;7.194;2023-03-12T04:08:21;5.40;99.90
1391;DHT22;690;51.454;7.194;2023-03-12T04:10:50;5.40;99.90
1391;DHT22;690;51.454;7.194;2023-03-12T04:13:17;5.40;99.90
1391;DHT22;690;51.454;7.194;2023-03-12T04:15:48;5.50;99.90
1391;DHT22;690;51.454;7.194;2023-03-12T04:18:15;5.50;99.90
1391;DHT22;690;51.454;7.194;2023-03-12T04:20:42;5.50;99.90
1391;DHT22;690;51.454;7.194;2023-03-12T04:23:09;5.50;99.90
1391;DHT22;690;51.454;7.194;2023-03-12T04:25:36;5.50;99.90
1391;DHT22;690;51.454;7.194;2023-03-12T04:28:05;5.50;99.90
1391;DHT22;690;51.454;7.194;2023-03-12T04:30:32;5.50;99.90
1391;DHT22;690;51.454;7.194;2023-03-12T04:32:59;5.60;99.90
1391;DHT22;690;51.454;7.194;2023-03-12T04:35:26;5.60;99.90
1391;DHT22;690;51.454;7.194;2023-03-12T04:37:52;5.60;99.90
1391;DHT22;690;51.454;7.194;2023-03-12T04:40:19;5.60;99.90
1391;DHT22;690;51.454;7.194;2023-03-12T04:42:46;5.60;99.90
1391;DHT22;690;51.454;7.194;2023-03-12T04:45:15;5.60;99.90
1391;DHT22;690;51.454;7.194;2023-03-12T04:47:42;5.60;99.90
1391;DHT22;690;51.454;7.194;2023-03-12T04:50:10;5.70;99.90
1391;DHT22;690;51.454;7.194;2023-03-12T04:52:37;5.70;99.90
1391;DHT22;690;51.454;7.194;2023-03-12T04:55:05;5.70;99.90
1391;DHT22;690;51.454;7.194;2023-03-12T04:57:32;5.70;99.90
1391;DHT22;690;51.454;7.194;2023-03-12T04:59:59;5.70;99.90
1391;DHT22;690;51.454;7.194;2023-03-12T05:02:27;5.70;99.90
1391;DHT22;690;51.454;7.194;2023-03-12T05:04:55;5.80;99.90
1391;DHT22;690;51.454;7.194;2023-03-12T05:07:22;5.80;99.90
1391;DHT22;690;51.454;7.194;2023-03-12T05:09:49;5.80;99.90
1391;DHT22;690;51.454;7.194;2023-03-12T05:12:15;5.80;99.90
1391;DHT22;690;51.454;7.194;2023-03-12T05:14:42;5.80;99.90
1391;DHT22;690;51.454;7.194;2023-03-12T05:17:09;5.90;99.90
1391;DHT22;690;51.454;7.194;2023-03-12T05:19:37;5.90;99.90
1391;DHT22;690;51.454;7.194;2023-03-12T05:22:04;5.90;99.90
1391;DHT22;690;51.454;7.194;2023-03-12T05:24:31;5.90;99.90
1391;DHT22;690;51.454;7.194;2023-03-12T05:26:58;5.90;99.90
1391;DHT22;690;51.454;7.194;2023-03-12T05:29:25;5.90;99.90
1391;DHT22;690;51.454;7.194;2023-03-12T05:31:52;5.90;99.90
1391;DHT22;690;51.454;7.194;2023-03-12T05:34:19;6.00;99.90
1391;DHT22;690;51.454;7.194;2023-03-12T05:36:47;6.00;99.90
1391;DHT22;690;51.454;7.194;2023-03-12T05:39:14;6.00;99.90
1391;DHT22;690;51.454;7.194;2023-03-12T05:41:40;6.00;99.90
1391;DHT22;690;51.454;7.194;2023-03-12T05:44:10;6.00;99.90
1391;DHT22;690;51.454;7.194;2023-03-12T05:46:37;6.10;99.90
1391;DHT22;690;51.454;7.194;2023-03-12T05:49:03;6.10;99.90
1391;DHT22;690;51.454;7.194;2023-03-12T05:51:30;6.10;99.90
1391;DHT22;690;51.454;7.194;2023-03-12T05:53:59;6.20;99.90
1391;DHT22;690;51.454;7.194;2023-03-12T05:56:26;6.10;99.90
1391;DHT22;690;51.454;7.194;2023-03-12T05:58:53;6.20;99.90
1391;DHT22;690;51.454;7.194;2023-03-12T06:01:24;6.20;99.90
1391;DHT22;690;51.454;7.194;2023-03-12T06:03:51;6.10;99.90
1391;DHT22;690;51.454;7.194;2023-03-12T06:06:19;6.20;99.90
1391;DHT22;690;51.454;7.194;2023-03-12T06:08:46;6.20;99.90
1391;DHT22;690;51.454;7.194;2023-03-12T06:11:15;6.10;99.90
1391;DHT22;690;51.454;7.194;2023-03-12T06:13:42;6.20;99.90
1391;DHT22;690;51.454;7.194;2023-03-12T06:16:13;6.20;99.90
1391;DHT22;690;51.454;7.194;2023-03-12T06:18:41;6.20;99.90
1391;DHT22;690;51.454;7.194;2023-03-12T06:21:10;6.20;99.90
1391;DHT22;690;51.454;7.194;2023-03-12T06:23:37;6.20;99.90
1391;DHT22;690;51.454;7.194;2023-03-12T06:26:05;6.20;99.90
1391;DHT22;690;51.454;7.194;2023-03-12T06:28:34;6.20;99.90
1391;DHT22;690;51.454;7.194;2023-03-12T06:31:01;6.20;99.90
1391;DHT22;690;51.454;7.194;2023-03-12T06:33:28;6.20;99.90
1391;DHT22;690;51.454;7.194;2023-03-12T06:35:56;6.30;99.90
1391;DHT22;690;51.454;7.194;2023-03-12T06:38:23;6.30;99.90
1391;DHT22;690;51.454;7.194;2023-03-12T06:40:55;6.30;99.90
1391;DHT22;690;51.454;7.194;2023-03-12T06:43:22;6.30;99.90
1391;DHT22;690;51.454;7.194;2023-03-12T06:45:52;6.40;99.90
1391;DHT22;690;51.454;7.194;2023-03-12T06:48:19;6.40;99.90
1391;DHT22;690;51.454;7.194;2023-03-12T06:50:46;6.40;99.90
1391;DHT22;690;51.454;7.194;2023-03-12T06:53:13;6.50;99.90
1391;DHT22;690;51.454;7.194;2023-03-12T06:55:39;6.50;99.90
1391;DHT22;690;51.454;7.194;2023-03-12T06:58:06;6.50;99.90
1391;DHT22;690;51.454;7.194;2023-03-12T07:00:33;6.50;99.90
1391;DHT22;690;51.454;7.194;2023-03-12T07:03:01;6.50;99.90
1391;DHT22;690;51.454;7.194;2023-03-12T07:05:29;6.60;99.90
1391;DHT22;690;51.454;7.194;2023-03-12T07:07:56;6.60;99.90
1391;DHT22;690;51.454;7.194;2023-03-12T07:10:23;6.60;99.90
1391;DHT22;690;51.454;7.194;2023-03-12T07:12:52;6.60;99.90
1391;DHT22;690;51.454;7.194;2023-03-12T07:15:19;6.60;99.90
1391;DHT22;690;51.454;7.194;2023-03-12T07:17:46;6.60;99.90
1391;DHT22;690;51.454;7.194;2023-03-12T07:20:14;6.60;99.90
1391;DHT22;690;51.454;7.194;2023-03-12T07:22:41;6.60;99.90
1391;DHT22;690;51.454;7.194;2023-03-12T07:25:09;6.60;99.90
1391;DHT22;690;51.454;7.194;2023-03-12T07:27:36;6.70;99.90
1391;DHT22;690;51.454;7.194;2023-03-12T07:30:04;6.70;99.90
1391;DHT22;690;51.454;7.194;2023-03-12T07:32:31;6.70;99.90
1391;DHT22;690;51.454;7.194;2023-03-12T07:34:59;6.70;99.90
1391;DHT22;690;51.454;7.194;2023-03-12T07:37:27;6.70;99.90
1391;DHT22;690;51.454;7.194;2023-03-12T07:39:54;6.70;99.90
1391;DHT22;690;51.454;7.194;2023-03-12T07:42:21;6.60;99.90
1391;DHT22;690;51.454;7.194;2023-03-12T07:44:48;6.60;99.90
1391;DHT22;690;51.454;7.194;2023-03-12T07:47:15;6.60;99.90
1391;DHT22;690;51.454;7.194;2023-03-12T07:49:42;6.70;99.90
1391;DHT22;690;51.454;7.194;2023-03-12T07:52:08;6.70;99.90
1391;DHT22;690;51.454;7.194;2023-03-12T07:54:37;6.70;99.90
1391;DHT22;690;51.454;7.194;2023-03-12T07:57:04;6.70;99.90
1391;DHT22;690;51.454;7.194;2023-03-12T07:59:31;6.70;99.90
1391;DHT22;690;51.454;7.194;2023-03-12T08:01:58;6.80;99.90
1391;DHT22;690;51.454;7.194;2023-03-12T08:04:25;6.80;99.90
1391;DHT22;690;51.454;7.194;2023-03-12T08:06:55;6.80;99.90
1391;DHT22;690;51.454;7.194;2023-03-12T08:09:22;6.90;99.90
1391;DHT22;690;51.454;7.194;2023-03-12T08:11:50;6.90;99.90
1391;DHT22;690;51.454;7.194;2023-03-12T08:14:17;6.90;99.90
1391;DHT22;690;51.454;7.194;2023-03-12T08:16:44;6.90;99.90
1391;DHT22;690;51.454;7.194;2023-03-12T08:19:11;6.90;99.90
1391;DHT22;690;51.454;7.194;2023-03-12T08:21:38;6.90;99.90
1391;DHT22;690;51.454;7.194;2023-03-12T08:24:05;7.00;99.90
1391;DHT22;690;51.454;7.194;2023-03-12T08:26:32;7.10;99.90
1391;DHT22;690;51.454;7.194;2023-03-12T08:29:00;7.20;99.90
1391;DHT22;690;51.454;7.194;2023-03-12T08:31:28;7.30;99.90
1391;DHT22;690;51.454;7.194;2023-03-12T08:33:55;7.30;99.90
1391;DHT22;690;51.454;7.194;2023-03-12T08:36:21;7.40;99.90
1391;DHT22;690;51.454;7.194;2023-03-12T08:38:48;7.40;99.90
1391;DHT22;690;51.454;7.194;2023-03-12T08:41:15;7.40;99.90
1391;DHT22;690;51.454;7.194;2023-03-12T08:43:42;7.50;99.90
1391;DHT22;690;51.454;7.194;2023-03-12T08:46:10;7.50;99.90
1391;DHT22;690;51.454;7.194;2023-03-12T08:48:37;7.60;99.90
1391;DHT22;690;51.454;7.194;2023-03-12T08:51:05;7.70;99.90
1391;DHT22;690;51.454;7.194;2023-03-12T08:53:33;7.70;99.90
1391;DHT22;690;51.454;7.194;2023-03-12T08:56:01;7.70;99.90
1391;DHT22;690;51.454;7.194;2023-03-12T08:58:28;7.80;99.90
1391;DHT22;690;51.454;7.194;2023-03-12T09:00:55;7.70;99.90
1391;DHT22;690;51.454;7.194;2023-03-12T09:03:24;7.80;99.90
1391;DHT22;690;51.454;7.194;2023-03-12T09:06:01;7.80;99.90
1391;DHT22;690;51.454;7.194;2023-03-12T09:08:28;7.80;99.90
1391;DHT22;690;51.454;7.194;2023-03-12T09:10:55;7.90;1.00
1391;DHT22;690;51.454;7.194;2023-03-12T09:13:22;8.00;1.00
1391;DHT22;690;51.454;7.194;2023-03-12T09:15:49;8.10;1.00
1391;DHT22;690;51.454;7.194;2023-03-12T09:18:16;8.20;1.00
1391;DHT22;690;51.454;7.194;2023-03-12T09:20:46;8.30;1.00
1391;DHT22;690;51.454;7.194;2023-03-12T09:23:12;8.40;1.00
1391;DHT22;690;51.454;7.194;2023-03-12T09:25:39;8.40;1.00
1391;DHT22;690;51.454;7.194;2023-03-12T09:28:10;8.50;1.00
1391;DHT22;690;51.454;7.194;2023-03-12T09:30:37;8.50;1.00
1391;DHT22;690;51.454;7.194;2023-03-12T09:33:04;8.50;1.00
1391;DHT22;690;51.454;7.194;2023-03-12T09:35:31;8.50;1.00
1391;DHT22;690;51.454;7.194;2023-03-12T09:37:59;8.60;1.00
1391;DHT22;690;51.454;7.194;2023-03-12T09:40:29;8.60;1.00
1391;DHT22;690;51.454;7.194;2023-03-12T09:42:58;8.60;1.00
1391;DHT22;690;51.454;7.194;2023-03-12T09:45:28;8.60;1.00
1391;DHT22;690;51.454;7.194;2023-03-12T09:47:58;8.60;1.00
1391;DHT22;690;51.454;7.194;2023-03-12T09:50:28;8.60;1.00
1391;DHT22;690;51.454;7.194;2023-03-12T09:53:00;8.60;1.00
1391;DHT22;690;51.454;7.194;2023-03-12T09:55:34;8.60;1.00
1391;DHT22;690;51.454;7.194;2023-03-12T09:58:01;8.60;1.00
1391;DHT22;690;51.454;7.194;2023-03-12T10:00:31;8.60;1.00
1391;DHT22;690;51.454;7.194;2023-03-12T10:03:14;8.50;1.00
1391;DHT22;690;51.454;7.194;2023-03-12T10:05:45;8.50;1.00
1391;DHT22;690;51.454;7.194;2023-03-12T10:08:19;8.50;1.00
1391;DHT22;690;51.454;7.194;2023-03-12T10:10:52;8.50;1.00
1391;DHT22;690;51.454;7.194;2023-03-12T10:13:44;8.50;1.00
1391;DHT22;690;51.454;7.194;2023-03-12T10:16:26;8.50;1.00
1391;DHT22;690;51.454;7.194;2023-03-12T10:19:04;8.50;1.00
1391;DHT22;690;51.454;7.194;2023-03-12T10:21:37;8.50;1.00
1391;DHT22;690;51.454;7.194;2023-03-12T10:24:15;8.50;1.00
1391;DHT22;690;51.454;7.194;2023-03-12T10:26:48;8.50;1.00
1391;DHT22;690;51.454;7.194;2023-03-12T10:29:17;8.50;1.00
1391;DHT22;690;51.454;7.194;2023-03-12T10:31:50;8.50;1.00
1391;DHT22;690;51.454;7.194;2023-03-12T10:34:24;8.60;1.00
1391;DHT22;690;51.454;7.194;2023-03-12T10:36:57;8.60;1.00
1391;DHT22;690;51.454;7.194;2023-03-12T10:39:26;8.70;82.40
1391;DHT22;690;51.454;7.194;2023-03-12T10:41:53;8.80;99.90
1391;DHT22;690;51.454;7.194;2023-03-12T10:44:23;8.80;99.90
1391;DHT22;690;51.454;7.194;2023-03-12T10:47:06;8.90;99.90
1391;DHT22;690;51.454;7.194;2023-03-12T10:49:34;8.90;99.90
1391;DHT22;690;51.454;7.194;2023-03-12T10:52:05;9.00;99.90
1391;DHT22;690;51.454;7.194;2023-03-12T10:54:36;9.00;99.90
1391;DHT22;690;51.454;7.194;2023-03-12T10:57:05;9.00;99.90
1391;DHT22;690;51.454;7.194;2023-03-12T10:59:34;9.00;99.90
1391;DHT22;690;51.454;7.194;2023-03-12T11:02:17;9.00;1.00
1391;DHT22;690;51.454;7.194;2023-03-12T11:04:51;9.00;1.00
1391;DHT22;690;51.454;7.194;2023-03-12T11:07:21;9.10;1.00
1391;DHT22;690;51.454;7.194;2023-03-12T11:10:13;9.10;1.00
1391;DHT22;690;51.454;7.194;2023-03-12T11:12:54;9.10;1.00
1391;DHT22;690;51.454;7.194;2023-03-12T11:15:24;9.10;1.00
1391;DHT22;690;51.454;7.194;2023-03-12T11:18:26;9.20;1.00
1391;DHT22;690;51.454;7.194;2023-03-12T11:20:54;9.20;47.10
1391;DHT22;690;51.454;7.194;2023-03-12T11:23:25;9.20;99.90
1391;DHT22;690;51.454;7.194;2023-03-12T11:25:56;9.20;99.90
1391;DHT22;690;51.454;7.194;2023-03-12T11:28:28;9.30;99.90
1391;DHT22;690;51.454;7.194;2023-03-12T11:30:57;9.30;99.90
1391;DHT22;690;51.454;7.194;2023-03-12T11:33:25;9.30;99.90
1391;DHT22;690;51.454;7.194;2023-03-12T11:36:05;9.40;99.90
1391;DHT22;690;51.454;7.194;2023-03-12T11:38:37;9.40;99.90
1391;DHT22;690;51.454;7.194;2023-03-12T11:41:20;9.40;1.00
1391;DHT22;690;51.454;7.194;2023-03-12T11:44:01;9.50;1.00
1391;DHT22;690;51.454;7.194;2023-03-12T11:46:37;9.50;1.00
1391;DHT22;690;51.454;7.194;2023-03-12T11:49:20;9.50;13.30
1391;DHT22;690;51.454;7.194;2023-03-12T11:51:54;9.60;99.90
1391;DHT22;690;51.454;7.194;2023-03-12T11:54:39;9.70;99.90
1391;DHT22;690;51.454;7.194;2023-03-12T11:57:15;9.80;99.90
1391;DHT22;690;51.454;7.194;2023-03-12T11:59:53;9.80;99.90
1391;DHT22;690;51.454;7.194;2023-03-12T12:02:38;9.90;99.90
1391;DHT22;690;51.454;7.194;2023-03-12T12:05:31;10.00;99.90
1391;DHT22;690;51.454;7.194;2023-03-12T12:08:15;10.10;99.90
1391;DHT22;690;51.454;7.194;2023-03-12T12:10:52;10.10;99.90
1391;DHT22;690;51.454;7.194;2023-03-12T12:13:27;10.20;1.00
1391;DHT22;690;51.454;7.194;2023-03-12T12:16:07;10.30;1.00
1391;DHT22;690;51.454;7.194;2023-03-12T12:18:48;10.30;1.00
1391;DHT22;690;51.454;7.194;2023-03-12T12:21:32;10.40;1.00
1391;DHT22;690;51.454;7.194;2023-03-12T12:24:12;10.40;1.00
1391;DHT22;690;51.454;7.194;2023-03-12T12:26:50;10.40;1.00
1391;DHT22;690;51.454;7.194;2023-03-12T12:29:31;10.60;1.00
1391;DHT22;690;51.454;7.194;2023-03-12T12:32:01;10.70;1.00
1391;DHT22;690;51.454;7.194;2023-03-12T12:34:47;10.70;1.00
1391;DHT22;690;51.454;7.194;2023-03-12T12:37:42;10.80;1.00
1391;DHT22;690;51.454;7.194;2023-03-12T12:40:17;10.80;1.00
1391;DHT22;690;51.454;7.194;2023-03-12T12:42:52;10.90;1.00
1391;DHT22;690;51.454;7.194;2023-03-12T12:45:24;10.90;1.00
1391;DHT22;690;51.454;7.194;2023-03-12T12:47:55;11.00;95.90
1391;DHT22;690;51.454;7.194;2023-03-12T12:50:26;11.10;99.90
1391;DHT22;690;51.454;7.194;2023-03-12T12:53:01;11.30;99.90
1391;DHT22;690;51.454;7.194;2023-03-12T12:55:35;11.40;99.90
1391;DHT22;690;51.454;7.194;2023-03-12T12:58:11;11.50;99.90
1391;DHT22;690;51.454;7.194;2023-03-12T13:00:46;11.70;1.00
1391;DHT22;690;51.454;7.194;2023-03-12T13:03:16;11.70;1.00
1391;DHT22;690;51.454;7.194;2023-03-12T13:05:53;11.70;1.00
1391;DHT22;690;51.454;7.194;2023-03-12T13:08:35;11.70;1.00
1391;DHT22;690;51.454;7.194;2023-03-12T13:11:25;11.80;99.90
1391;DHT22;690;51.454;7.194;2023-03-12T13:14:12;11.80;99.90
1391;DHT22;690;51.454;7.194;2023-03-12T13:16:41;11.80;99.90
1391;DHT22;690;51.454;7.194;2023-03-12T13:19:23;11.80;17.00
1391;DHT22;690;51.454;7.194;2023-03-12T13:21:59;11.80;49.10
1391;DHT22;690;51.454;7.194;2023-03-12T13:24:30;11.80;60.80
1391;DHT22;690;51.454;7.194;2023-03-12T13:27:04;11.80;99.90
1391;DHT22;690;51.454;7.194;2023-03-12T13:29:37;11.90;99.90
1391;DHT22;690;51.454;7.194;2023-03-12T13:32:09;11.90;99.90
1391;DHT22;690;51.454;7.194;2023-03-12T13:34:45;12.10;99.90
1391;DHT22;690;51.454;7.194;2023-03-12T13:43:48;12.60;1.00
1391;DHT22;690;51.454;7.194;2023-03-12T13:46:38;12.80;99.90
1391;DHT22;690;51.454;7.194;2023-03-12T13:49:13;12.90;29.60
1391;DHT22;690;51.454;7.194;2023-03-12T13:51:46;13.00;1.00
1391;DHT22;690;51.454;7.194;2023-03-12T13:54:19;13.10;1.00
1391;DHT22;690;51.454;7.194;2023-03-12T13:56:55;13.10;1.00
1391;DHT22;690;51.454;7.194;2023-03-12T13:59:23;13.20;1.00
1391;DHT22;690;51.454;7.194;2023-03-12T14:01:55;13.30;99.90
1391;DHT22;690;51.454;7.194;2023-03-12T14:04:29;13.40;99.90
1391;DHT22;690;51.454;7.194;2023-03-12T14:10:00;13.60;99.90
1391;DHT22;690;51.454;7.194;2023-03-12T14:12:35;13.70;60.60
1391;DHT22;690;51.454;7.194;2023-03-12T14:15:20;13.80;1.00
1391;DHT22;690;51.454;7.194;2023-03-12T14:17:55;13.90;1.00
1391;DHT22;690;51.454;7.194;2023-03-12T14:20:25;14.00;1.00
1391;DHT22;690;51.454;7.194;2023-03-12T14:22:56;14.10;1.00
1391;DHT22;690;51.454;7.194;2023-03-12T14:25:31;14.10;1.00
1391;DHT22;690;51.454;7.194;2023-03-12T14:28:00;14.20;99.90
1391;DHT22;690;51.454;7.194;2023-03-12T14:30:36;14.10;99.90
1391;DHT22;690;51.454;7.194;2023-03-12T14:33:08;14.00;99.90
1391;DHT22;690;51.454;7.194;2023-03-12T14:35:42;14.00;99.90
1391;DHT22;690;51.454;7.194;2023-03-12T14:38:14;13.90;99.90
1391;DHT22;690;51.454;7.194;2023-03-12T14:40:45;13.90;99.90
1391;DHT22;690;51.454;7.194;2023-03-12T14:43:19;13.90;99.90
1391;DHT22;690;51.454;7.194;2023-03-12T14:45:49;13.80;99.90
1391;DHT22;690;51.454;7.194;2023-03-12T14:48:20;13.90;99.90
1391;DHT22;690;51.454;7.194;2023-03-12T14:50:49;13.90;99.90
1391;DHT22;690;51.454;7.194;2023-03-12T14:53:19;13.90;99.90
1391;DHT22;690;51.454;7.194;2023-03-12T14:55:57;13.90;99.90
1391;DHT22;690;51.454;7.194;2023-03-12T14:58:25;13.80;99.90
1391;DHT22;690;51.454;7.194;2023-03-12T15:00:56;13.80;99.90
1391;DHT22;690;51.454;7.194;2023-03-12T15:03:24;13.90;99.90
1391;DHT22;690;51.454;7.194;2023-03-12T15:05:53;13.90;99.90
1391;DHT22;690;51.454;7.194;2023-03-12T15:08:21;13.90;99.90
1391;DHT22;690;51.454;7.194;2023-03-12T15:10:49;13.90;99.90
1391;DHT22;690;51.454;7.194;2023-03-12T15:13:16;13.90;99.90
1391;DHT22;690;51.454;7.194;2023-03-12T15:15:46;13.90;99.90
1391;DHT22;690;51.454;7.194;2023-03-12T15:18:16;13.90;99.90
1391;DHT22;690;51.454;7.194;2023-03-12T15:20:44;13.90;99.90
1391;DHT22;690;51.454;7.194;2023-03-12T15:23:13;13.80;99.90
1391;DHT22;690;51.454;7.194;2023-03-12T15:25:41;13.80;99.90
1391;DHT22;690;51.454;7.194;2023-03-12T15:28:25;13.80;99.90
1391;DHT22;690;51.454;7.194;2023-03-12T15:31:08;13.90;99.90
1391;DHT22;690;51.454;7.194;2023-03-12T15:33:37;13.80;99.90
1391;DHT22;690;51.454;7.194;2023-03-12T15:36:14;13.80;99.90
1391;DHT22;690;51.454;7.194;2023-03-12T15:38:47;13.80;99.90
1391;DHT22;690;51.454;7.194;2023-03-12T15:41:18;13.70;99.90
1391;DHT22;690;51.454;7.194;2023-03-12T15:43:47;13.70;99.90
1391;DHT22;690;51.454;7.194;2023-03-12T15:46:16;13.70;99.90
1391;DHT22;690;51.454;7.194;2023-03-12T15:48:47;13.70;99.90
1391;DHT22;690;51.454;7.194;2023-03-12T15:51:29;13.70;99.90
1391;DHT22;690;51.454;7.194;2023-03-12T15:54:04;13.70;99.90
1391;DHT22;690;51.454;7.194;2023-03-12T15:56:33;13.70;99.90
1391;DHT22;690;51.454;7.194;2023-03-12T15:59:04;13.70;99.90
1391;DHT22;690;51.454;7.194;2023-03-12T16:01:46;13.60;94.40
1391;DHT22;690;51.454;7.194;2023-03-12T16:04:13;13.70;57.10
1391;DHT22;690;51.454;7.194;2023-03-12T16:06:40;13.70;29.60
1391;DHT22;690;51.454;7.194;2023-03-12T16:09:14;13.70;7.00
1391;DHT22;690;51.454;7.194;2023-03-12T16:11:41;13.70;1.00
1391;DHT22;690;51.454;7.194;2023-03-12T16:14:14;13.70;1.00
1391;DHT22;690;51.454;7.194;2023-03-12T16:16:42;13.60;1.00
1391;DHT22;690;51.454;7.194;2023-03-12T16:19:11;13.60;1.00
1391;DHT22;690;51.454;7.194;2023-03-12T16:21:38;13.60;1.00
1391;DHT22;690;51.454;7.194;2023-03-12T16:24:06;13.60;1.00
1391;DHT22;690;51.454;7.194;2023-03-12T16:26:37;13.60;1.00
1391;DHT22;690;51.454;7.194;2023-03-12T16:29:05;13.60;1.00
1391;DHT22;690;51.454;7.194;2023-03-12T16:31:32;13.70;1.00
1391;DHT22;690;51.454;7.194;2023-03-12T16:33:59;13.70;1.00
1391;DHT22;690;51.454;7.194;2023-03-12T16:36:26;13.70;1.00
1391;DHT22;690;51.454;7.194;2023-03-12T16:38:53;13.70;1.00
1391;DHT22;690;51.454;7.194;2023-03-12T16:41:20;13.70;1.00
1391;DHT22;690;51.454;7.194;2023-03-12T16:43:50;13.70;1.00
1391;DHT22;690;51.454;7.194;2023-03-12T16:46:20;13.70;1.00
1391;DHT22;690;51.454;7.194;2023-03-12T16:48:50;13.70;1.00
1391;DHT22;690;51.454;7.194;2023-03-12T16:51:18;13.70;1.00
1391;DHT22;690;51.454;7.194;2023-03-12T16:53:45;14.10;17.60
1391;DHT22;690;51.454;7.194;2023-03-12T16:56:15;14.80;1.00
1391;DHT22;690;51.454;7.194;2023-03-12T16:58:43;14.90;1.00
1391;DHT22;690;51.454;7.194;2023-03-12T17:01:13;14.80;1.00
1391;DHT22;690;51.454;7.194;2023-03-12T17:03:43;14.60;1.00